sensor_id;sensor_type;location;lat;lon;timestamp;temperature;humidity
11812;DHT22;5963;50.184;9.162;2023-09-19T00:01:42;16.70;99.90
11812;DHT22;5963;50.184;9.162;2023-09-19T00:04:12;16.80;99.90
11812;DHT22;5963;50.184;9.162;2023-09-19T00:06:41;16.80;99.90
11812;DHT22;5963;50.184;9.162;2023-09-19T00:09:10;16.80;99.90
11812;DHT22;5963;50.184;9.162;2023-09-19T00:11:41;16.80;99.90
11812;DHT22;5963;50.184;9.162;2023-09-19T00:14:09;16.90;99.90
11812;DHT22;5963;50.184;9.162;2023-09-19T00:16:42;16.80;99.90
11812;DHT22;5963;50.184;9.162;2023-09-19T00:19:11;16.80;99.90
11812;DHT22;5963;50.184;9.162;2023-09-19T00:21:39;16.80;99.90
11812;DHT22;5963;50.184;9.162;2023-09-19T00:24:08;16.90;99.90
11812;DHT22;5963;50.184;9.162;2023-09-19T00:26:39;16.90;99.90
11812;DHT22;5963;50.184;9.162;2023-09-19T00:29:07;16.80;99.90
11812;DHT22;5963;50.184;9.162;2023-09-19T00:31:35;16.90;99.90
11812;DHT22;5963;50.184;9.162;2023-09-19T00:34:08;16.90;99.90
11812;DHT22;5963;50.184;9.162;2023-09-19T00:36:37;16.80;99.90
11812;DHT22;5963;50.184;9.162;2023-09-19T00:39:06;16.80;99.90
11812;DHT22;5963;50.184;9.162;2023-09-19T00:41:35;16.80;99.90
11812;DHT22;5963;50.184;9.162;2023-09-19T00:44:03;16.80;99.90
11812;DHT22;5963;50.184;9.162;2023-09-19T00:46:32;16.80;99.90
11812;DHT22;5963;50.184;9.162;2023-09-19T00:49:00;16.80;99.90
11812;DHT22;5963;50.184;9.162;2023-09-19T00:51:32;16.80;99.90
11812;DHT22;5963;50.184;9.162;2023-09-19T00:54:00;16.80;99.90
11812;DHT22;5963;50.184;9.162;2023-09-19T00:56:28;16.80;99.90
11812;DHT22;5963;50.184;9.162;2023-09-19T00:58:57;16.80;99.90
11812;DHT22;5963;50.184;9.162;2023-09-19T01:01:25;16.80;99.90
11812;DHT22;5963;50.184;9.162;2023-09-19T01:03:53;16.90;99.90
11812;DHT22;5963;50.184;9.162;2023-09-19T01:06:21;16.90;99.90
11812;DHT22;5963;50.184;9.162;2023-09-19T01:08:51;16.90;99.90
11812;DHT22;5963;50.184;9.162;2023-09-19T01:11:31;16.90;99.90
11812;DHT22;5963;50.184;9.162;2023-09-19T01:14:11;16.80;99.90
11812;DHT22;5963;50.184;9.162;2023-09-19T01:16:47;16.80;99.90
11812;DHT22;5963;50.184;9.162;2023-09-19T01:19:54;16.80;99.90
11812;DHT22;5963;50.184;9.162;2023-09-19T01:22:36;16.80;99.90
11812;DHT22;5963;50.184;9.162;2023-09-19T01:25:20;16.80;99.90
11812;DHT22;5963;50.184;9.162;2023-09-19T01:28:09;16.80;99.90
11812;DHT22;5963;50.184;9.162;2023-09-19T01:30:42;16.80;99.90
11812;DHT22;5963;50.184;9.162;2023-09-19T01:33:11;16.70;99.90
11812;DHT22;5963;50.184;9.162;2023-09-19T01:35:39;16.60;99.90
11812;DHT22;5963;50.184;9.162;2023-09-19T01:38:07;16.60;99.90
11812;DHT22;5963;50.184;9.162;2023-09-19T01:40:42;16.60;99.90
11812;DHT22;5963;50.184;9.162;2023-09-19T01:43:17;16.60;99.90
11812;DHT22;5963;50.184;9.162;2023-09-19T01:45:56;16.70;99.90
11812;DHT22;5963;50.184;9.162;2023-09-19T01:48:34;16.70;99.90
11812;DHT22;5963;50.184;9.162;2023-09-19T01:51:05;16.70;99.90
11812;DHT22;5963;50.184;9.162;2023-09-19T01:53:36;16.60;99.90
11812;DHT22;5963;50.184;9.162;2023-09-19T01:56:08;16.60;99.90
11812;DHT22;5963;50.184;9.162;2023-09-19T01:58:43;16.70;99.90
11812;DHT22;5963;50.184;9.162;2023-09-19T02:01:17;16.80;99.90
11812;DHT22;5963;50.184;9.162;2023-09-19T02:03:47;16.70;99.90
11812;DHT22;5963;50.184;9.162;2023-09-19T02:06:17;16.80;99.90
11812;DHT22;5963;50.184;9.162;2023-09-19T02:08:45;16.80;99.90
11812;DHT22;5963;50.184;9.162;2023-09-19T02:11:14;16.80;99.90
11812;DHT22;5963;50.184;9.162;2023-09-19T02:13:42;16.80;99.90
11812;DHT22;5963;50.184;9.162;2023-09-19T02:16:11;16.80;99.90
11812;DHT22;5963;50.184;9.162;2023-09-19T02:18:40;16.70;99.90
11812;DHT22;5963;50.184;9.162;2023-09-19T02:21:08;16.70;99.90
11812;DHT22;5963;50.184;9.162;2023-09-19T02:23:39;16.70;99.90
11812;DHT22;5963;50.184;9.162;2023-09-19T02:26:08;16.60;99.90
11812;DHT22;5963;50.184;9.162;2023-09-19T02:28:36;16.60;99.90
11812;DHT22;5963;50.184;9.162;2023-09-19T02:31:04;16.60;99.90
11812;DHT22;5963;50.184;9.162;2023-09-19T02:33:32;16.60;99.90
11812;DHT22;5963;50.184;9.162;2023-09-19T02:36:04;16.60;99.90
11812;DHT22;5963;50.184;9.162;2023-09-19T02:38:32;16.60;99.90
11812;DHT22;5963;50.184;9.162;2023-09-19T02:41:00;16.60;99.90
11812;DHT22;5963;50.184;9.162;2023-09-19T02:43:28;16.50;99.90
11812;DHT22;5963;50.184;9.162;2023-09-19T02:45:56;16.50;99.90
11812;DHT22;5963;50.184;9.162;2023-09-19T02:48:25;16.50;99.90
11812;DHT22;5963;50.184;9.162;2023-09-19T02:50:53;16.40;99.90
11812;DHT22;5963;50.184;9.162;2023-09-19T02:53:23;16.30;99.90
11812;DHT22;5963;50.184;9.162;2023-09-19T02:55:51;16.30;99.90
11812;DHT22;5963;50.184;9.162;2023-09-19T02:58:19;16.30;99.90
11812;DHT22;5963;50.184;9.162;2023-09-19T03:00:48;16.40;99.90
11812;DHT22;5963;50.184;9.162;2023-09-19T03:03:16;16.30;99.90
11812;DHT22;5963;50.184;9.162;2023-09-19T03:05:45;16.30;99.90
11812;DHT22;5963;50.184;9.162;2023-09-19T03:08:16;16.20;99.90
11812;DHT22;5963;50.184;9.162;2023-09-19T03:10:47;16.10;99.90
11812;DHT22;5963;50.184;9.162;2023-09-19T03:13:16;16.10;99.90
11812;DHT22;5963;50.184;9.162;2023-09-19T03:15:44;16.10;99.90
11812;DHT22;5963;50.184;9.162;2023-09-19T03:18:13;16.00;99.90
11812;DHT22;5963;50.184;9.162;2023-09-19T03:20:41;16.00;99.90
11812;DHT22;5963;50.184;9.162;2023-09-19T03:23:09;15.90;99.90
11812;DHT22;5963;50.184;9.162;2023-09-19T03:25:37;15.80;99.90
11812;DHT22;5963;50.184;9.162;2023-09-19T03:28:07;15.80;99.90
11812;DHT22;5963;50.184;9.162;2023-09-19T03:30:36;15.70;99.90
11812;DHT22;5963;50.184;9.162;2023-09-19T03:33:05;15.70;99.90
11812;DHT22;5963;50.184;9.162;2023-09-19T03:35:33;15.60;99.90
11812;DHT22;5963;50.184;9.162;2023-09-19T03:38:02;15.60;99.90
11812;DHT22;5963;50.184;9.162;2023-09-19T03:40:31;15.50;99.90
11812;DHT22;5963;50.184;9.162;2023-09-19T03:43:00;15.50;99.90
11812;DHT22;5963;50.184;9.162;2023-09-19T03:45:30;15.40;99.90
11812;DHT22;5963;50.184;9.162;2023-09-19T03:47:58;15.40;99.90
11812;DHT22;5963;50.184;9.162;2023-09-19T03:50:26;15.40;99.90
11812;DHT22;5963;50.184;9.162;2023-09-19T03:52:56;15.40;99.90
11812;DHT22;5963;50.184;9.162;2023-09-19T03:55:24;15.40;99.90
11812;DHT22;5963;50.184;9.162;2023-09-19T03:57:53;15.40;99.90
11812;DHT22;5963;50.184;9.162;2023-09-19T04:00:21;15.40;99.90
11812;DHT22;5963;50.184;9.162;2023-09-19T04:02:53;15.40;99.90
11812;DHT22;5963;50.184;9.162;2023-09-19T04:05:23;15.40;99.90
11812;DHT22;5963;50.184;9.162;2023-09-19T04:07:51;15.30;99.90
11812;DHT22;5963;50.184;9.162;2023-09-19T04:10:20;15.30;99.90
11812;DHT22;5963;50.184;9.162;2023-09-19T04:12:51;15.30;99.90
11812;DHT22;5963;50.184;9.162;2023-09-19T04:15:20;15.30;99.90
11812;DHT22;5963;50.184;9.162;2023-09-19T04:17:49;15.30;99.90
11812;DHT22;5963;50.184;9.162;2023-09-19T04:20:19;15.30;99.90
11812;DHT22;5963;50.184;9.162;2023-09-19T04:22:49;15.30;99.90
11812;DHT22;5963;50.184;9.162;2023-09-19T04:25:17;15.20;99.90
11812;DHT22;5963;50.184;9.162;2023-09-19T04:27:48;15.20;99.90
11812;DHT22;5963;50.184;9.162;2023-09-19T04:30:16;15.20;99.90
11812;DHT22;5963;50.184;9.162;2023-09-19T04:32:44;15.20;99.90
11812;DHT22;5963;50.184;9.162;2023-09-19T04:35:19;15.10;99.90
11812;DHT22;5963;50.184;9.162;2023-09-19T04:37:47;15.10;99.90
11812;DHT22;5963;50.184;9.162;2023-09-19T04:40:15;15.10;99.90
11812;DHT22;5963;50.184;9.162;2023-09-19T04:42:45;15.10;99.90
11812;DHT22;5963;50.184;9.162;2023-09-19T04:45:13;15.10;99.90
11812;DHT22;5963;50.184;9.162;2023-09-19T04:47:41;15.10;99.90
11812;DHT22;5963;50.184;9.162;2023-09-19T04:50:11;15.10;99.90
11812;DHT22;5963;50.184;9.162;2023-09-19T04:52:42;15.00;99.90
11812;DHT22;5963;50.184;9.162;2023-09-19T04:55:12;15.00;99.90
11812;DHT22;5963;50.184;9.162;2023-09-19T04:57:44;15.00;99.90
11812;DHT22;5963;50.184;9.162;2023-09-19T05:00:13;15.00;99.90
11812;DHT22;5963;50.184;9.162;2023-09-19T05:02:43;15.10;99.90
11812;DHT22;5963;50.184;9.162;2023-09-19T05:05:11;15.10;99.90
11812;DHT22;5963;50.184;9.162;2023-09-19T05:07:43;15.20;99.90
11812;DHT22;5963;50.184;9.162;2023-09-19T05:10:12;15.20;99.90
11812;DHT22;5963;50.184;9.162;2023-09-19T05:12:40;15.20;99.90
11812;DHT22;5963;50.184;9.162;2023-09-19T05:15:10;15.30;99.90
11812;DHT22;5963;50.184;9.162;2023-09-19T05:17:39;15.30;99.90
11812;DHT22;5963;50.184;9.162;2023-09-19T05:20:07;15.30;99.90
11812;DHT22;5963;50.184;9.162;2023-09-19T05:22:39;15.30;99.90
11812;DHT22;5963;50.184;9.162;2023-09-19T05:25:09;15.30;99.90
11812;DHT22;5963;50.184;9.162;2023-09-19T05:27:40;15.30;99.90
11812;DHT22;5963;50.184;9.162;2023-09-19T05:30:12;15.30;99.90
11812;DHT22;5963;50.184;9.162;2023-09-19T05:32:42;15.40;99.90
11812;DHT22;5963;50.184;9.162;2023-09-19T05:35:10;15.40;99.90
11812;DHT22;5963;50.184;9.162;2023-09-19T05:37:39;15.30;99.90
11812;DHT22;5963;50.184;9.162;2023-09-19T05:40:10;15.40;99.90
11812;DHT22;5963;50.184;9.162;2023-09-19T05:42:39;15.40;99.90
11812;DHT22;5963;50.184;9.162;2023-09-19T05:45:08;15.40;99.90
11812;DHT22;5963;50.184;9.162;2023-09-19T05:47:39;15.40;99.90
11812;DHT22;5963;50.184;9.162;2023-09-19T05:50:10;15.40;99.90
11812;DHT22;5963;50.184;9.162;2023-09-19T05:52:40;15.40;99.90
11812;DHT22;5963;50.184;9.162;2023-09-19T05:55:14;15.50;99.90
11812;DHT22;5963;50.184;9.162;2023-09-19T05:57:42;15.50;99.90
11812;DHT22;5963;50.184;9.162;2023-09-19T06:00:11;15.50;99.90
11812;DHT22;5963;50.184;9.162;2023-09-19T06:02:39;15.40;99.90
11812;DHT22;5963;50.184;9.162;2023-09-19T06:05:08;15.40;99.90
11812;DHT22;5963;50.184;9.162;2023-09-19T06:07:37;15.50;99.90
11812;DHT22;5963;50.184;9.162;2023-09-19T06:10:06;15.50;99.90
11812;DHT22;5963;50.184;9.162;2023-09-19T06:12:39;15.60;99.90
11812;DHT22;5963;50.184;9.162;2023-09-19T06:15:07;15.50;99.90
11812;DHT22;5963;50.184;9.162;2023-09-19T06:17:39;15.60;99.90
11812;DHT22;5963;50.184;9.162;2023-09-19T06:20:08;15.60;99.90
11812;DHT22;5963;50.184;9.162;2023-09-19T06:22:40;15.70;99.90
11812;DHT22;5963;50.184;9.162;2023-09-19T06:25:09;15.80;99.90
11812;DHT22;5963;50.184;9.162;2023-09-19T06:27:40;15.80;99.90
11812;DHT22;5963;50.184;9.162;2023-09-19T06:30:10;15.80;99.90
11812;DHT22;5963;50.184;9.162;2023-09-19T06:32:39;15.80;99.90
11812;DHT22;5963;50.184;9.162;2023-09-19T06:35:10;15.90;99.90
11812;DHT22;5963;50.184;9.162;2023-09-19T06:37:39;16.00;99.90
11812;DHT22;5963;50.184;9.162;2023-09-19T06:40:08;15.90;99.90
11812;DHT22;5963;50.184;9.162;2023-09-19T06:42:41;16.00;99.90
11812;DHT22;5963;50.184;9.162;2023-09-19T06:45:11;16.20;99.90
11812;DHT22;5963;50.184;9.162;2023-09-19T06:47:40;16.10;99.90
11812;DHT22;5963;50.184;9.162;2023-09-19T06:50:10;16.10;99.90
11812;DHT22;5963;50.184;9.162;2023-09-19T06:52:41;16.20;99.90
11812;DHT22;5963;50.184;9.162;2023-09-19T06:55:09;16.10;99.90
11812;DHT22;5963;50.184;9.162;2023-09-19T06:57:41;16.20;99.90
11812;DHT22;5963;50.184;9.162;2023-09-19T07:00:11;16.20;99.90
11812;DHT22;5963;50.184;9.162;2023-09-19T07:02:45;16.20;99.90
11812;DHT22;5963;50.184;9.162;2023-09-19T07:05:13;16.20;99.90
11812;DHT22;5963;50.184;9.162;2023-09-19T07:07:41;16.20;99.90
11812;DHT22;5963;50.184;9.162;2023-09-19T07:10:10;16.30;99.90
11812;DHT22;5963;50.184;9.162;2023-09-19T07:12:41;16.40;99.90
11812;DHT22;5963;50.184;9.162;2023-09-19T07:15:09;16.50;99.90
11812;DHT22;5963;50.184;9.162;2023-09-19T07:17:37;16.50;99.90
11812;DHT22;5963;50.184;9.162;2023-09-19T07:20:06;16.50;99.90
11812;DHT22;5963;50.184;9.162;2023-09-19T07:22:35;16.80;99.90
11812;DHT22;5963;50.184;9.162;2023-09-19T07:25:06;16.70;99.90
11812;DHT22;5963;50.184;9.162;2023-09-19T07:27:34;17.00;99.90
11812;DHT22;5963;50.184;9.162;2023-09-19T07:30:07;17.10;99.90
11812;DHT22;5963;50.184;9.162;2023-09-19T07:32:36;17.30;99.90
11812;DHT22;5963;50.184;9.162;2023-09-19T07:35:05;17.50;99.90
11812;DHT22;5963;50.184;9.162;2023-09-19T07:37:36;17.20;99.90
11812;DHT22;5963;50.184;9.162;2023-09-19T07:40:06;17.30;99.90
11812;DHT22;5963;50.184;9.162;2023-09-19T07:42:36;17.50;99.90
11812;DHT22;5963;50.184;9.162;2023-09-19T07:45:09;17.30;99.90
11812;DHT22;5963;50.184;9.162;2023-09-19T07:47:43;17.40;99.90
11812;DHT22;5963;50.184;9.162;2023-09-19T07:50:12;17.50;99.90
11812;DHT22;5963;50.184;9.162;2023-09-19T07:52:40;17.40;99.90
11812;DHT22;5963;50.184;9.162;2023-09-19T07:55:08;17.40;99.90
11812;DHT22;5963;50.184;9.162;2023-09-19T07:57:38;17.40;99.90
11812;DHT22;5963;50.184;9.162;2023-09-19T08:00:10;17.30;99.90
11812;DHT22;5963;50.184;9.162;2023-09-19T08:02:39;17.30;99.90
11812;DHT22;5963;50.184;9.162;2023-09-19T08:05:09;17.30;99.90
11812;DHT22;5963;50.184;9.162;2023-09-19T08:07:39;17.40;99.90
11812;DHT22;5963;50.184;9.162;2023-09-19T08:10:08;17.60;99.90
11812;DHT22;5963;50.184;9.162;2023-09-19T08:12:42;17.40;99.90
11812;DHT22;5963;50.184;9.162;2023-09-19T08:15:15;17.60;99.90
11812;DHT22;5963;50.184;9.162;2023-09-19T08:17:49;17.60;99.90
11812;DHT22;5963;50.184;9.162;2023-09-19T08:20:17;17.70;99.90
11812;DHT22;5963;50.184;9.162;2023-09-19T08:22:47;17.90;99.90
11812;DHT22;5963;50.184;9.162;2023-09-19T08:25:16;17.90;99.90
11812;DHT22;5963;50.184;9.162;2023-09-19T08:27:46;17.90;99.90
11812;DHT22;5963;50.184;9.162;2023-09-19T08:30:16;17.70;99.90
11812;DHT22;5963;50.184;9.162;2023-09-19T08:32:46;17.50;99.90
11812;DHT22;5963;50.184;9.162;2023-09-19T08:35:15;17.50;99.90
11812;DHT22;5963;50.184;9.162;2023-09-19T08:37:43;17.50;99.90
11812;DHT22;5963;50.184;9.162;2023-09-19T08:40:12;17.80;99.90
11812;DHT22;5963;50.184;9.162;2023-09-19T08:42:50;17.90;99.90
11812;DHT22;5963;50.184;9.162;2023-09-19T08:45:19;17.90;99.90
11812;DHT22;5963;50.184;9.162;2023-09-19T08:47:56;18.10;99.90
11812;DHT22;5963;50.184;9.162;2023-09-19T08:50:29;18.10;99.90
11812;DHT22;5963;50.184;9.162;2023-09-19T08:53:01;18.20;99.90
11812;DHT22;5963;50.184;9.162;2023-09-19T08:55:29;18.20;99.90
11812;DHT22;5963;50.184;9.162;2023-09-19T08:58:04;18.60;99.90
11812;DHT22;5963;50.184;9.162;2023-09-19T09:00:36;18.30;99.90
11812;DHT22;5963;50.184;9.162;2023-09-19T09:03:09;18.40;99.90
11812;DHT22;5963;50.184;9.162;2023-09-19T09:05:38;18.50;99.90
11812;DHT22;5963;50.184;9.162;2023-09-19T09:08:09;18.70;99.90
11812;DHT22;5963;50.184;9.162;2023-09-19T09:10:37;18.60;99.90
11812;DHT22;5963;50.184;9.162;2023-09-19T09:13:07;18.60;99.90
11812;DHT22;5963;50.184;9.162;2023-09-19T09:15:38;18.60;99.90
11812;DHT22;5963;50.184;9.162;2023-09-19T09:18:08;18.70;99.90
11812;DHT22;5963;50.184;9.162;2023-09-19T09:20:36;18.70;99.90
11812;DHT22;5963;50.184;9.162;2023-09-19T09:23:05;19.00;99.90
11812;DHT22;5963;50.184;9.162;2023-09-19T09:25:48;19.00;99.90
11812;DHT22;5963;50.184;9.162;2023-09-19T09:28:25;18.60;99.90
11812;DHT22;5963;50.184;9.162;2023-09-19T09:30:55;18.60;99.90
11812;DHT22;5963;50.184;9.162;2023-09-19T09:33:23;18.80;99.90
11812;DHT22;5963;50.184;9.162;2023-09-19T09:35:53;18.80;99.90
11812;DHT22;5963;50.184;9.162;2023-09-19T09:38:24;19.10;99.90
11812;DHT22;5963;50.184;9.162;2023-09-19T09:40:55;19.50;99.90
11812;DHT22;5963;50.184;9.162;2023-09-19T09:43:30;19.70;99.90
11812;DHT22;5963;50.184;9.162;2023-09-19T09:46:12;19.50;99.90
11812;DHT22;5963;50.184;9.162;2023-09-19T09:48:59;18.70;99.90
11812;DHT22;5963;50.184;9.162;2023-09-19T09:51:59;18.80;99.90
11812;DHT22;5963;50.184;9.162;2023-09-19T09:54:38;19.10;99.90
11812;DHT22;5963;50.184;9.162;2023-09-19T09:57:09;19.20;99.90
11812;DHT22;5963;50.184;9.162;2023-09-19T09:59:47;19.30;99.90
11812;DHT22;5963;50.184;9.162;2023-09-19T10:02:16;19.10;99.90
11812;DHT22;5963;50.184;9.162;2023-09-19T10:04:52;19.30;99.90
11812;DHT22;5963;50.184;9.162;2023-09-19T10:07:27;19.00;99.90
11812;DHT22;5963;50.184;9.162;2023-09-19T10:10:00;19.00;99.90
11812;DHT22;5963;50.184;9.162;2023-09-19T10:12:44;19.20;99.90
11812;DHT22;5963;50.184;9.162;2023-09-19T10:15:16;19.50;99.90
11812;DHT22;5963;50.184;9.162;2023-09-19T10:17:48;19.50;99.90
11812;DHT22;5963;50.184;9.162;2023-09-19T10:20:17;19.40;99.90
11812;DHT22;5963;50.184;9.162;2023-09-19T10:23:00;18.90;99.90
11812;DHT22;5963;50.184;9.162;2023-09-19T10:25:29;19.30;99.90
11812;DHT22;5963;50.184;9.162;2023-09-19T10:28:00;19.50;99.90
11812;DHT22;5963;50.184;9.162;2023-09-19T10:30:31;19.90;99.90
11812;DHT22;5963;50.184;9.162;2023-09-19T10:33:04;20.20;99.90
11812;DHT22;5963;50.184;9.162;2023-09-19T10:35:33;20.20;99.90
11812;DHT22;5963;50.184;9.162;2023-09-19T10:38:01;19.90;99.90
11812;DHT22;5963;50.184;9.162;2023-09-19T10:40:32;19.50;99.90
11812;DHT22;5963;50.184;9.162;2023-09-19T10:43:04;19.60;99.90
11812;DHT22;5963;50.184;9.162;2023-09-19T10:45:34;19.80;99.90
11812;DHT22;5963;50.184;9.162;2023-09-19T10:48:07;20.30;99.90
11812;DHT22;5963;50.184;9.162;2023-09-19T10:50:43;20.70;99.90
11812;DHT22;5963;50.184;9.162;2023-09-19T10:53:13;20.70;99.90
11812;DHT22;5963;50.184;9.162;2023-09-19T10:55:50;21.00;99.90
11812;DHT22;5963;50.184;9.162;2023-09-19T10:58:29;20.20;99.90
11812;DHT22;5963;50.184;9.162;2023-09-19T11:01:01;20.40;99.90
11812;DHT22;5963;50.184;9.162;2023-09-19T11:03:40;20.40;99.90
11812;DHT22;5963;50.184;9.162;2023-09-19T11:06:12;20.30;99.90
11812;DHT22;5963;50.184;9.162;2023-09-19T11:08:54;20.60;99.90
11812;DHT22;5963;50.184;9.162;2023-09-19T11:11:42;20.80;99.90
11812;DHT22;5963;50.184;9.162;2023-09-19T11:14:41;20.90;99.90
11812;DHT22;5963;50.184;9.162;2023-09-19T11:17:31;21.20;99.90
11812;DHT22;5963;50.184;9.162;2023-09-19T11:20:21;21.40;99.90
11812;DHT22;5963;50.184;9.162;2023-09-19T11:23:18;20.40;99.90
11812;DHT22;5963;50.184;9.162;2023-09-19T11:25:52;20.50;99.90
11812;DHT22;5963;50.184;9.162;2023-09-19T11:28:31;20.30;99.90
11812;DHT22;5963;50.184;9.162;2023-09-19T11:31:00;20.20;99.90
11812;DHT22;5963;50.184;9.162;2023-09-19T11:36:54;20.60;99.90
11812;DHT22;5963;50.184;9.162;2023-09-19T11:39:25;20.70;99.90
11812;DHT22;5963;50.184;9.162;2023-09-19T11:41:56;20.50;99.90
11812;DHT22;5963;50.184;9.162;2023-09-19T11:44:34;20.60;99.90
11812;DHT22;5963;50.184;9.162;2023-09-19T11:47:05;20.90;99.90
11812;DHT22;5963;50.184;9.162;2023-09-19T11:49:35;20.20;99.90
11812;DHT22;5963;50.184;9.162;2023-09-19T11:52:08;20.10;99.90
11812;DHT22;5963;50.184;9.162;2023-09-19T11:54:36;20.10;99.90
11812;DHT22;5963;50.184;9.162;2023-09-19T11:57:08;20.50;99.90
11812;DHT22;5963;50.184;9.162;2023-09-19T11:59:39;20.70;99.90
11812;DHT22;5963;50.184;9.162;2023-09-19T12:02:07;20.70;99.90
11812;DHT22;5963;50.184;9.162;2023-09-19T12:04:41;20.50;99.90
11812;DHT22;5963;50.184;9.162;2023-09-19T12:07:11;20.10;99.90
11812;DHT22;5963;50.184;9.162;2023-09-19T12:09:43;20.10;99.90
11812;DHT22;5963;50.184;9.162;2023-09-19T12:12:19;20.40;99.90
11812;DHT22;5963;50.184;9.162;2023-09-19T12:14:48;20.70;99.90
11812;DHT22;5963;50.184;9.162;2023-09-19T12:17:17;20.50;99.90
11812;DHT22;5963;50.184;9.162;2023-09-19T12:19:52;20.40;99.90
11812;DHT22;5963;50.184;9.162;2023-09-19T12:22:20;19.90;99.90
11812;DHT22;5963;50.184;9.162;2023-09-19T12:24:48;19.80;99.90
11812;DHT22;5963;50.184;9.162;2023-09-19T12:27:21;20.00;99.90
11812;DHT22;5963;50.184;9.162;2023-09-19T12:29:50;20.30;99.90
11812;DHT22;5963;50.184;9.162;2023-09-19T12:32:34;20.70;99.90
11812;DHT22;5963;50.184;9.162;2023-09-19T12:35:04;20.40;99.90
11812;DHT22;5963;50.184;9.162;2023-09-19T12:37:42;20.80;99.90
11812;DHT22;5963;50.184;9.162;2023-09-19T12:40:13;20.90;99.90
11812;DHT22;5963;50.184;9.162;2023-09-19T12:42:45;21.20;99.90
11812;DHT22;5963;50.184;9.162;2023-09-19T12:45:14;21.60;99.90
11812;DHT22;5963;50.184;9.162;2023-09-19T12:48:17;22.00;99.90
11812;DHT22;5963;50.184;9.162;2023-09-19T12:51:05;21.30;99.90
11812;DHT22;5963;50.184;9.162;2023-09-19T12:53:35;20.90;99.90
11812;DHT22;5963;50.184;9.162;2023-09-19T12:56:08;21.10;99.90
11812;DHT22;5963;50.184;9.162;2023-09-19T12:58:48;20.60;99.90
11812;DHT22;5963;50.184;9.162;2023-09-19T13:01:16;21.10;99.90
11812;DHT22;5963;50.184;9.162;2023-09-19T13:03:45;21.70;99.90
11812;DHT22;5963;50.184;9.162;2023-09-19T13:06:14;21.10;99.90
11812;DHT22;5963;50.184;9.162;2023-09-19T13:08:44;20.70;99.90
11812;DHT22;5963;50.184;9.162;2023-09-19T13:11:20;21.30;99.90
11812;DHT22;5963;50.184;9.162;2023-09-19T13:13:50;21.40;99.90
11812;DHT22;5963;50.184;9.162;2023-09-19T13:16:21;21.20;99.90
11812;DHT22;5963;50.184;9.162;2023-09-19T13:18:52;21.40;99.90
11812;DHT22;5963;50.184;9.162;2023-09-19T13:21:31;21.10;99.90
11812;DHT22;5963;50.184;9.162;2023-09-19T13:24:20;21.50;99.90
11812;DHT22;5963;50.184;9.162;2023-09-19T13:26:49;20.90;99.90
11812;DHT22;5963;50.184;9.162;2023-09-19T13:29:18;20.40;99.90
11812;DHT22;5963;50.184;9.162;2023-09-19T13:31:46;20.40;99.90
11812;DHT22;5963;50.184;9.162;2023-09-19T13:34:15;20.30;99.90
11812;DHT22;5963;50.184;9.162;2023-09-19T13:36:46;20.50;99.90
11812;DHT22;5963;50.184;9.162;2023-09-19T13:39:15;20.70;99.90
11812;DHT22;5963;50.184;9.162;2023-09-19T13:41:44;20.90;99.90
11812;DHT22;5963;50.184;9.162;2023-09-19T13:44:14;20.70;99.90
11812;DHT22;5963;50.184;9.162;2023-09-19T13:46:43;21.00;99.90
11812;DHT22;5963;50.184;9.162;2023-09-19T13:49:13;20.90;99.90
11812;DHT22;5963;50.184;9.162;2023-09-19T13:51:41;21.00;99.90
11812;DHT22;5963;50.184;9.162;2023-09-19T13:54:12;21.20;99.90
11812;DHT22;5963;50.184;9.162;2023-09-19T13:56:41;21.10;99.90
11812;DHT22;5963;50.184;9.162;2023-09-19T13:59:09;20.80;99.90
11812;DHT22;5963;50.184;9.162;2023-09-19T14:01:37;20.60;99.90
11812;DHT22;5963;50.184;9.162;2023-09-19T14:04:06;20.60;99.90
11812;DHT22;5963;50.184;9.162;2023-09-19T14:06:34;20.10;99.90
11812;DHT22;5963;50.184;9.162;2023-09-19T14:09:06;20.20;99.90
11812;DHT22;5963;50.184;9.162;2023-09-19T14:11:36;20.20;99.90
11812;DHT22;5963;50.184;9.162;2023-09-19T14:14:04;20.40;99.90
11812;DHT22;5963;50.184;9.162;2023-09-19T14:16:32;20.60;99.90
11812;DHT22;5963;50.184;9.162;2023-09-19T14:19:00;20.50;99.90
11812;DHT22;5963;50.184;9.162;2023-09-19T14:21:31;20.60;99.90
11812;DHT22;5963;50.184;9.162;2023-09-19T14:23:59;20.40;99.90
11812;DHT22;5963;50.184;9.162;2023-09-19T14:26:27;20.20;99.90
11812;DHT22;5963;50.184;9.162;2023-09-19T14:28:57;20.40;99.90
11812;DHT22;5963;50.184;9.162;2023-09-19T14:31:26;20.40;99.90
11812;DHT22;5963;50.184;9.162;2023-09-19T14:33:54;20.80;99.90
11812;DHT22;5963;50.184;9.162;2023-09-19T14:36:23;20.80;99.90
11812;DHT22;5963;50.184;9.162;2023-09-19T14:38:53;20.80;99.90
11812;DHT22;5963;50.184;9.162;2023-09-19T14:41:22;21.00;99.90
11812;DHT22;5963;50.184;9.162;2023-09-19T14:43:52;20.90;99.90
11812;DHT22;5963;50.184;9.162;2023-09-19T14:46:23;20.60;99.90
11812;DHT22;5963;50.184;9.162;2023-09-19T14:48:52;20.80;99.90
11812;DHT22;5963;50.184;9.162;2023-09-19T14:51:20;21.00;99.90
11812;DHT22;5963;50.184;9.162;2023-09-19T14:53:48;20.90;99.90
11812;DHT22;5963;50.184;9.162;2023-09-19T14:56:16;21.00;99.90
11812;DHT22;5963;50.184;9.162;2023-09-19T14:58:46;20.90;99.90
11812;DHT22;5963;50.184;9.162;2023-09-19T15:01:15;20.70;99.90
11812;DHT22;5963;50.184;9.162;2023-09-19T15:03:44;20.30;99.90
11812;DHT22;5963;50.184;9.162;2023-09-19T15:06:16;20.20;99.90
11812;DHT22;5963;50.184;9.162;2023-09-19T15:08:47;20.40;99.90
11812;DHT22;5963;50.184;9.162;2023-09-19T15:11:17;20.40;99.90
11812;DHT22;5963;50.184;9.162;2023-09-19T15:13:47;20.50;99.90
11812;DHT22;5963;50.184;9.162;2023-09-19T15:16:15;20.40;99.90
11812;DHT22;5963;50.184;9.162;2023-09-19T15:18:46;20.50;99.90
11812;DHT22;5963;50.184;9.162;2023-09-19T15:21:15;20.30;99.90
11812;DHT22;5963;50.184;9.162;2023-09-19T15:23:43;20.10;99.90
11812;DHT22;5963;50.184;9.162;2023-09-19T15:26:12;20.30;99.90
11812;DHT22;5963;50.184;9.162;2023-09-19T15:28:44;20.20;99.90
11812;DHT22;5963;50.184;9.162;2023-09-19T15:31:13;20.00;99.90
11812;DHT22;5963;50.184;9.162;2023-09-19T15:33:41;20.10;99.90
11812;DHT22;5963;50.184;9.162;2023-09-19T15:36:13;20.20;99.90
11812;DHT22;5963;50.184;9.162;2023-09-19T15:38:56;20.10;99.90
11812;DHT22;5963;50.184;9.162;2023-09-19T15:41:24;19.90;99.90
11812;DHT22;5963;50.184;9.162;2023-09-19T15:43:55;19.90;99.90
11812;DHT22;5963;50.184;9.162;2023-09-19T15:46:26;19.90;99.90
11812;DHT22;5963;50.184;9.162;2023-09-19T15:48:54;19.70;99.90
11812;DHT22;5963;50.184;9.162;2023-09-19T15:51:24;19.80;99.90
11812;DHT22;5963;50.184;9.162;2023-09-19T15:53:53;19.90;99.90
11812;DHT22;5963;50.184;9.162;2023-09-19T15:56:23;19.70;99.90
11812;DHT22;5963;50.184;9.162;2023-09-19T15:58:52;19.80;99.90
11812;DHT22;5963;50.184;9.162;2023-09-19T16:01:21;19.60;99.90
11812;DHT22;5963;50.184;9.162;2023-09-19T16:03:50;19.40;99.90
11812;DHT22;5963;50.184;9.162;2023-09-19T16:06:20;19.40;99.90
11812;DHT22;5963;50.184;9.162;2023-09-19T16:08:52;19.40;99.90
11812;DHT22;5963;50.184;9.162;2023-09-19T16:11:22;19.30;99.90
11812;DHT22;5963;50.184;9.162;2023-09-19T16:13:51;19.30;99.90